Time;durP1;ratioP1;P1;durP2;ratioP2;P2;SDS_P1;SDS_P2;PMS_P1;PMS_P2;Temp;Humidity;BMP_temperature;BMP_pressure;BME280_temperature;BME280_humidity;BME280_pressure;Samples;Min_cycle;Max_cycle;Signal;HPM_P1;HPM_P2
2021/08/03 00:02:08;;;;;;;2.92;2.72;;;16.00;99.90;;;;;;5099323;28;20103;-70
2021/08/03 00:04:42;;;;;;;3.33;3.00;;;16.00;99.90;;;;;;5099546;28;20376;-70
2021/08/03 00:07:15;;;;;;;5.82;3.00;;;16.00;99.90;;;;;;5099047;28;20027;-70
2021/08/03 00:09:42;;;;;;;3.55;2.92;;;16.00;99.90;;;;;;5099387;28;20050;-70
2021/08/03 00:12:12;;;;;;;4.15;2.67;;;15.80;99.90;;;;;;5099351;28;20057;-70
2021/08/03 00:14:43;;;;;;;3.35;3.05;;;16.10;99.90;;;;;;5081015;28;20111;-70
2021/08/03 00:17:14;;;;;;;6.75;2.78;;;16.00;99.90;;;;;;5099313;28;20028;-70
2021/08/03 00:19:41;;;;;;;3.92;2.65;;;15.90;99.90;;;;;;5098996;28;20458;-70
2021/08/03 00:22:07;;;;;;;2.65;2.45;;;15.80;99.90;;;;;;5098944;28;20032;-70
2021/08/03 00:24:35;;;;;;;2.40;2.20;;;16.00;99.90;;;;;;5098126;28;20024;-70
2021/08/03 00:27:02;;;;;;;3.05;2.72;;;15.70;99.90;;;;;;5098891;28;20046;-70
2021/08/03 00:29:28;;;;;;;3.22;2.92;;;15.80;99.90;;;;;;5099015;28;20108;-70
2021/08/03 00:31:56;;;;;;;3.22;2.50;;;15.80;99.90;;;;;;5103838;28;20027;-70
2021/08/03 00:34:22;;;;;;;5.00;2.92;;;15.80;99.90;;;;;;5102206;28;20027;-70
2021/08/03 00:36:48;;;;;;;2.88;2.55;;;15.60;99.90;;;;;;5098853;28;20062;-70
2021/08/03 00:39:13;;;;;;;2.72;2.53;;;15.90;99.90;;;;;;5098511;28;20024;-70
2021/08/03 00:41:54;;;;;;;3.85;2.17;;;15.90;99.90;;;;;;5098879;28;20532;-70
2021/08/03 00:44:36;;;;;;;2.55;2.35;;;15.60;99.90;;;;;;5098625;28;20012;-70
2021/08/03 00:47:01;;;;;;;2.53;2.33;;;15.60;99.90;;;;;;5098514;28;20162;-69
2021/08/03 00:49:27;;;;;;;2.53;2.30;;;15.60;99.90;;;;;;5098899;28;20046;-70
2021/08/03 00:51:53;;;;;;;2.60;2.40;;;15.70;99.90;;;;;;5098275;28;20028;-70
2021/08/03 00:54:19;;;;;;;4.57;2.53;;;15.70;99.90;;;;;;5098482;28;20028;-70
2021/08/03 00:56:45;;;;;;;2.83;2.63;;;15.60;99.90;;;;;;5080052;28;20020;-70
2021/08/03 00:59:12;;;;;;;3.13;2.92;;;15.40;99.90;;;;;;5098322;28;20861;-70
2021/08/03 01:01:38;;;;;;;4.63;3.05;;;15.70;99.90;;;;;;5098244;28;20023;-70
2021/08/03 01:04:05;;;;;;;3.95;2.75;;;15.50;99.90;;;;;;5080161;28;20023;-70
2021/08/03 01:06:43;;;;;;;4.70;3.03;;;15.70;99.90;;;;;;5079770;28;20054;-70
2021/08/03 01:09:22;;;;;;;2.60;2.40;;;15.60;99.90;;;;;;5080212;28;20020;-70
2021/08/03 01:11:54;;;;;;;2.58;2.38;;;15.50;99.90;;;;;;5079815;28;20035;-70
2021/08/03 01:14:33;;;;;;;2.42;2.22;;;15.40;99.90;;;;;;5098186;28;20049;-70
2021/08/03 01:17:13;;;;;;;3.83;3.00;;;15.50;99.90;;;;;;5079966;28;20031;-70
2021/08/03 01:19:54;;;;;;;3.75;3.05;;;15.40;99.90;;;;;;5079601;28;20031;-70
2021/08/03 01:22:50;;;;;;;2.90;2.70;;;15.50;99.90;;;;;;5079493;28;20032;-70
2021/08/03 01:25:29;;;;;;;2.83;2.47;;;15.40;99.90;;;;;;5097974;28;20028;-70
2021/08/03 01:28:00;;;;;;;2.28;2.15;;;15.50;99.90;;;;;;5097753;28;20066;-70
2021/08/03 01:30:26;;;;;;;2.85;2.65;;;15.50;99.90;;;;;;5098041;28;20016;-70
2021/08/03 01:32:56;;;;;;;3.40;2.78;;;15.50;99.90;;;;;;5078730;28;20114;-70
2021/08/03 01:35:22;;;;;;;3.10;2.67;;;15.50;99.90;;;;;;5096461;28;20009;-70
2021/08/03 01:37:48;;;;;;;3.47;2.97;;;15.40;99.90;;;;;;5097640;28;20023;-70
2021/08/03 01:40:15;;;;;;;2.55;2.42;;;15.40;99.90;;;;;;5097468;28;20027;-70
2021/08/03 01:42:45;;;;;;;2.20;2.10;;;15.50;99.90;;;;;;5097527;28;20496;-70
2021/08/03 01:45:12;;;;;;;2.85;2.58;;;15.30;99.90;;;;;;5097606;28;20492;-70
2021/08/03 01:47:38;;;;;;;3.00;2.70;;;15.30;99.90;;;;;;5097379;28;20499;-70
2021/08/03 01:50:07;;;;;;;3.47;2.42;;;15.40;99.90;;;;;;5097514;28;20023;-70
2021/08/03 01:52:36;;;;;;;3.50;2.55;;;15.10;99.90;;;;;;5078864;28;20028;-70
2021/08/03 01:55:02;;;;;;;3.50;2.67;;;15.40;99.90;;;;;;5097274;28;20491;-70
2021/08/03 01:57:29;;;;;;;2.53;2.33;;;15.30;99.90;;;;;;5097362;28;20542;-70
2021/08/03 01:59:56;;;;;;;2.88;2.67;;;15.10;99.90;;;;;;5097238;28;20568;-70
2021/08/03 02:02:24;;;;;;;3.95;2.53;;;15.10;99.90;;;;;;5097085;28;20028;-70
2021/08/03 02:04:51;;;;;;;3.80;2.42;;;15.00;99.90;;;;;;5097198;28;20022;-70
2021/08/03 02:07:21;;;;;;;3.40;2.72;;;15.10;99.90;;;;;;5078669;28;20047;-70
2021/08/03 02:09:46;;;;;;;2.85;2.65;;;15.10;99.90;;;;;;5096864;28;20020;-70
2021/08/03 02:12:13;;;;;;;2.72;2.50;;;14.90;99.90;;;;;;5097092;28;20078;-70
2021/08/03 02:14:45;;;;;;;2.85;2.40;;;15.10;99.90;;;;;;5097221;28;20044;-70
2021/08/03 02:17:23;;;;;;;2.65;2.22;;;15.10;99.90;;;;;;5078819;28;20036;-70
2021/08/03 02:19:49;;;;;;;3.97;3.20;;;15.00;99.90;;;;;;5096822;28;20081;-70
2021/08/03 02:22:18;;;;;;;2.30;2.10;;;14.90;99.90;;;;;;5078480;28;20028;-70
2021/08/03 02:24:44;;;;;;;2.70;2.50;;;15.00;99.90;;;;;;5096727;28;20020;-70
2021/08/03 02:27:10;;;;;;;8.52;3.28;;;14.90;99.90;;;;;;5096783;28;20521;-70
2021/08/03 02:29:40;;;;;;;3.10;2.72;;;15.10;99.90;;;;;;5078630;28;20054;-70
2021/08/03 02:32:32;;;;;;;2.97;2.78;;;15.00;99.90;;;;;;5103087;28;20024;-70
2021/08/03 02:35:07;;;;;;;3.58;2.70;;;14.90;99.90;;;;;;5076466;28;20059;-70
2021/08/03 02:37:37;;;;;;;3.30;3.00;;;14.90;99.90;;;;;;5096452;28;20031;-70
2021/08/03 02:40:05;;;;;;;2.55;2.35;;;14.70;99.90;;;;;;5096764;28;20040;-70
2021/08/03 02:42:32;;;;;;;4.57;2.95;;;14.70;99.90;;;;;;5096602;28;20024;-70
2021/08/03 02:45:03;;;;;;;3.25;2.75;;;14.60;99.90;;;;;;5096878;28;20016;-70
2021/08/03 02:47:40;;;;;;;3.35;3.08;;;14.60;99.90;;;;;;5099325;28;20023;-70
2021/08/03 02:50:07;;;;;;;6.50;2.97;;;14.70;99.90;;;;;;5101032;28;20020;-70
2021/08/03 02:52:41;;;;;;;3.50;3.20;;;14.40;99.90;;;;;;5100579;28;20400;-70
2021/08/03 02:55:35;;;;;;;4.13;2.75;;;14.60;99.90;;;;;;5100532;28;20066;-70
2021/08/03 02:58:07;;;;;;;4.32;2.75;;;14.70;99.90;;;;;;5100666;28;20098;-70
2021/08/03 03:00:36;;;;;;;2.83;2.63;;;14.60;99.90;;;;;;5100483;28;20384;-70
2021/08/03 03:03:09;;;;;;;3.72;2.97;;;14.50;99.90;;;;;;5100653;28;20020;-70
2021/08/03 03:05:36;;;;;;;4.43;2.97;;;14.80;99.90;;;;;;5100264;28;20028;-70
2021/08/03 03:08:15;;;;;;;3.05;2.85;;;14.70;99.90;;;;;;5100486;28;20016;-70
2021/08/03 03:10:48;;;;;;;3.47;3.17;;;14.40;99.90;;;;;;5100487;28;20024;-70
2021/08/03 03:13:34;;;;;;;2.95;2.75;;;14.40;99.90;;;;;;5082042;28;20043;-70
2021/08/03 03:16:01;;;;;;;;;;;14.60;99.90;;;;;;5100902;28;20396;-70
2021/08/03 03:18:27;;;;;;;6.07;3.55;;;14.60;99.90;;;;;;5100277;28;19908;-70
2021/08/03 03:20:53;;;;;;;4.80;3.42;;;14.70;99.90;;;;;;5100106;28;20039;-70
2021/08/03 03:23:23;;;;;;;3.20;2.90;;;14.60;99.90;;;;;;5099998;28;20072;-70
2021/08/03 03:25:52;;;;;;;3.80;3.45;;;14.50;99.90;;;;;;5100163;28;20020;-70
2021/08/03 03:28:25;;;;;;;3.13;2.92;;;14.30;99.90;;;;;;5086737;28;20282;-70
2021/08/03 03:30:51;;;;;;;3.85;3.22;;;14.60;99.90;;;;;;5100072;28;20027;-70
2021/08/03 03:33:18;;;;;;;8.98;3.40;;;14.30;99.90;;;;;;5108168;28;20069;-70
2021/08/03 03:35:47;;;;;;;3.78;3.30;;;14.50;99.90;;;;;;5099642;28;20024;-70
2021/08/03 03:38:18;;;;;;;3.53;3.22;;;14.30;99.90;;;;;;5082009;28;20496;-70
2021/08/03 03:40:46;;;;;;;6.03;3.53;;;14.40;99.90;;;;;;5099883;28;20024;-70
2021/08/03 03:43:14;;;;;;;3.70;2.78;;;14.30;99.90;;;;;;5099825;28;20499;-70
2021/08/03 03:45:45;;;;;;;4.10;3.40;;;14.30;99.90;;;;;;5099855;28;20020;-70
2021/08/03 03:48:14;;;;;;;3.95;3.55;;;14.60;99.90;;;;;;5081485;28;20024;-70
2021/08/03 03:50:59;;;;;;;4.20;3.65;;;14.60;99.90;;;;;;5099369;28;20016;-70
2021/08/03 03:53:33;;;;;;;4.78;4.05;;;14.50;99.90;;;;;;5099692;28;20016;-70
2021/08/03 03:56:01;;;;;;;4.82;3.78;;;14.40;99.90;;;;;;5099771;28;20026;-70
2021/08/03 03:58:29;;;;;;;3.50;3.03;;;14.40;99.90;;;;;;5098385;28;20032;-70
2021/08/03 04:00:56;;;;;;;3.78;3.47;;;14.20;99.90;;;;;;5099837;28;20103;-70
2021/08/03 04:03:24;;;;;;;5.03;3.63;;;14.70;99.90;;;;;;5099283;28;20024;-70
2021/08/03 04:05:51;;;;;;;7.82;4.13;;;14.30;99.90;;;;;;5099438;28;20024;-70
2021/08/03 04:08:17;;;;;;;4.88;3.45;;;14.30;99.90;;;;;;5099112;28;20020;-70
2021/08/03 04:10:45;;;;;;;5.43;3.53;;;14.60;99.90;;;;;;5099500;28;20030;-70
2021/08/03 04:13:12;;;;;;;3.50;3.20;;;14.40;99.90;;;;;;5099119;28;20028;-70
2021/08/03 04:15:39;;;;;;;4.80;3.00;;;14.40;99.90;;;;;;5099386;28;20040;-70
2021/08/03 04:18:06;;;;;;;4.03;3.40;;;14.30;99.90;;;;;;5098999;28;20036;-70
2021/08/03 04:20:32;;;;;;;3.60;3.35;;;14.40;99.90;;;;;;5080872;28;20020;-70
2021/08/03 04:22:58;;;;;;;4.50;3.53;;;14.60;99.90;;;;;;5080898;28;20051;-70
2021/08/03 04:25:24;;;;;;;3.63;3.00;;;14.30;99.90;;;;;;5099295;28;20016;-70
2021/08/03 04:27:51;;;;;;;3.70;3.30;;;14.30;99.90;;;;;;5098747;28;20052;-70
2021/08/03 04:30:17;;;;;;;3.65;3.28;;;14.30;99.90;;;;;;5099021;28;20028;-70
2021/08/03 04:32:44;;;;;;;4.93;2.90;;;14.40;99.90;;;;;;5107602;28;20055;-70
2021/08/03 04:35:11;;;;;;;5.72;3.30;;;14.20;99.90;;;;;;5098711;28;20055;-70
2021/08/03 04:37:43;;;;;;;3.63;3.33;;;14.40;99.90;;;;;;5098789;28;20024;-70
2021/08/03 04:40:11;;;;;;;3.88;3.58;;;14.00;99.90;;;;;;5098679;28;20376;-70
2021/08/03 04:42:37;;;;;;;6.95;3.80;;;14.20;99.90;;;;;;5098655;28;20024;-70
2021/08/03 04:45:05;;;;;;;3.45;3.15;;;14.40;99.90;;;;;;5098712;28;20095;-70
2021/08/03 04:47:31;;;;;;;3.78;3.40;;;13.90;99.90;;;;;;5080343;28;20107;-70
2021/08/03 04:49:56;;;;;;;5.47;3.65;;;14.30;99.90;;;;;;5098722;28;20047;-70
2021/08/03 04:52:22;;;;;;;3.45;3.15;;;13.90;99.90;;;;;;5098249;28;20032;-70
2021/08/03 04:54:48;;;;;;;3.97;3.67;;;14.00;99.90;;;;;;5098339;28;20023;-70
2021/08/03 04:57:14;;;;;;;3.35;3.15;;;14.20;99.90;;;;;;5098338;28;20028;-70
2021/08/03 04:59:40;;;;;;;4.07;3.67;;;14.30;99.90;;;;;;5098322;28;20035;-70
2021/08/03 05:02:06;;;;;;;5.03;3.70;;;14.30;99.90;;;;;;5098215;28;20032;-70
2021/08/03 05:04:34;;;;;;;4.68;3.78;;;14.10;99.90;;;;;;5098302;28;20016;-70
2021/08/03 05:07:01;;;;;;;7.50;3.08;;;14.70;99.90;;;;;;5079738;28;20104;-70
2021/08/03 05:09:26;;;;;;;6.10;4.13;;;14.50;99.90;;;;;;5098060;28;20020;-70
2021/08/03 05:11:52;;;;;;;4.22;3.55;;;14.40;99.90;;;;;;5097911;28;20024;-70
2021/08/03 05:14:18;;;;;;;3.97;3.63;;;14.30;99.90;;;;;;5079915;28;20100;-70
2021/08/03 05:16:44;;;;;;;4.45;3.75;;;14.60;99.90;;;;;;5098009;28;20027;-70
2021/08/03 05:19:10;;;;;;;3.47;3.28;;;14.20;99.90;;;;;;5097873;28;20079;-70
2021/08/03 05:21:35;;;;;;;4.30;3.00;;;14.60;99.90;;;;;;5097644;28;20107;-70
2021/08/03 05:24:02;;;;;;;3.80;3.47;;;14.40;99.90;;;;;;5079551;28;20028;-70
2021/08/03 05:26:27;;;;;;;4.47;3.67;;;14.20;99.90;;;;;;5097660;28;20052;-71
2021/08/03 05:28:53;;;;;;;2.95;2.72;;;14.60;99.90;;;;;;5098148;28;20031;-70
2021/08/03 05:31:19;;;;;;;3.70;3.40;;;14.60;99.90;;;;;;5097420;28;20036;-70
2021/08/03 05:33:45;;;;;;;3.78;3.47;;;14.30;99.90;;;;;;5106234;28;20082;-70
2021/08/03 05:36:11;;;;;;;4.43;3.28;;;14.50;99.90;;;;;;5079090;28;20028;-70
2021/08/03 05:38:36;;;;;;;3.55;3.30;;;14.20;99.90;;;;;;5097666;28;20039;-70
2021/08/03 05:41:03;;;;;;;5.25;3.00;;;14.50;99.90;;;;;;5079159;28;20031;-70
2021/08/03 05:43:28;;;;;;;6.72;3.63;;;14.70;99.90;;;;;;5097692;28;20024;-70
2021/08/03 05:45:54;;;;;;;3.70;3.35;;;14.60;99.90;;;;;;5097623;28;20589;-70
2021/08/03 05:48:20;;;;;;;4.07;3.60;;;14.40;99.90;;;;;;5079268;28;20039;-70
2021/08/03 05:50:46;;;;;;;4.00;3.45;;;14.60;99.90;;;;;;5097128;28;20373;-71
2021/08/03 05:53:12;;;;;;;3.88;3.10;;;14.50;99.90;;;;;;5079059;28;20020;-70
2021/08/03 05:55:37;;;;;;;4.32;3.63;;;14.60;99.90;;;;;;5092995;28;20026;-71
2021/08/03 05:58:03;;;;;;;3.33;3.10;;;14.60;99.90;;;;;;5095232;28;20532;-70
2021/08/03 06:00:29;;;;;;;3.67;3.38;;;14.70;99.90;;;;;;5097183;28;20100;-69
2021/08/03 06:02:55;;;;;;;4.03;3.28;;;14.80;99.90;;;;;;5102070;28;20020;-69
2021/08/03 06:05:21;;;;;;;3.45;3.15;;;14.50;99.90;;;;;;5096800;28;20476;-69
2021/08/03 06:07:51;;;;;;;6.47;3.63;;;14.80;99.90;;;;;;5097164;28;20020;-69
2021/08/03 06:10:17;;;;;;;3.28;2.97;;;14.80;99.90;;;;;;5096697;28;20053;-69
2021/08/03 06:12:48;;;;;;;4.82;3.67;;;14.70;99.90;;;;;;5097054;28;20055;-69
2021/08/03 06:15:14;;;;;;;4.43;3.65;;;14.70;99.90;;;;;;5096916;28;20024;-69
2021/08/03 06:17:47;;;;;;;3.80;3.42;;;14.80;99.90;;;;;;5096519;28;20024;-69
2021/08/03 06:20:14;;;;;;;4.57;4.18;;;14.90;99.90;;;;;;5096777;28;20488;-70
2021/08/03 06:22:40;;;;;;;3.90;3.60;;;;;;;;;;5096119;28;20047;-69
2021/08/03 06:25:08;;;;;;;5.65;4.30;;;14.90;99.90;;;;;;5095991;28;20031;-69
2021/08/03 06:27:34;;;;;;;6.38;4.40;;;15.40;99.90;;;;;;5095583;28;20048;-69
2021/08/03 06:30:02;;;;;;;3.60;3.30;;;15.30;99.90;;;;;;5096948;28;20365;-69
2021/08/03 06:32:29;;;;;;;4.35;3.30;;;15.00;99.90;;;;;;5077935;28;20484;-69
2021/08/03 06:34:56;;;;;;;3.42;3.20;;;15.10;99.90;;;;;;5096938;28;20478;-69
2021/08/03 06:37:22;;;;;;;4.47;3.90;;;15.20;99.90;;;;;;5091022;28;20028;-70
2021/08/03 06:39:48;;;;;;;4.05;3.75;;;;;;;;;;5095499;28;20840;-69
2021/08/03 06:42:47;;;;;;;4.30;3.67;;;15.70;99.90;;;;;;5094780;28;20020;-69
2021/08/03 06:45:18;;;;;;;3.95;3.65;;;15.50;99.90;;;;;;5094977;28;20017;-69
2021/08/03 06:48:05;;;;;;;4.53;3.67;;;15.20;99.90;;;;;;5096359;28;20027;-69
2021/08/03 06:50:33;;;;;;;6.78;3.58;;;15.00;99.90;;;;;;5096318;28;20013;-68
2021/08/03 06:53:00;;;;;;;4.80;3.42;;;15.20;99.90;;;;;;5096571;28;20032;-68
2021/08/03 06:55:31;;;;;;;4.07;3.78;;;15.00;99.90;;;;;;5096609;28;20016;-69
2021/08/03 06:58:09;;;;;;;5.43;3.53;;;15.20;99.90;;;;;;5096792;28;20108;-69
2021/08/03 07:00:45;;;;;;;5.78;3.67;;;15.40;99.90;;;;;;5096447;28;20411;-69
2021/08/03 07:03:12;;;;;;;4.78;3.72;;;;;;;;;;5096362;28;20024;-69
2021/08/03 07:05:48;;;;;;;5.03;4.43;;;15.30;99.90;;;;;;5096552;28;20031;-69
2021/08/03 07:08:16;;;;;;;4.77;3.77;;;15.60;99.90;;;;;;5096242;28;20020;-68
2021/08/03 07:10:45;;;;;;;4.63;3.83;;;15.50;99.90;;;;;;5096545;28;20020;-68
2021/08/03 07:13:12;;;;;;;4.75;4.20;;;;;;;;;;5096294;28;20032;-68
2021/08/03 07:15:39;;;;;;;5.93;4.95;;;15.70;99.90;;;;;;5096750;28;20020;-68
2021/08/03 07:18:07;;;;;;;4.93;3.97;;;15.70;99.90;;;;;;5096256;28;20137;-68
2021/08/03 07:20:34;;;;;;;4.35;3.92;;;15.70;99.90;;;;;;5096335;28;20032;-69
2021/08/03 07:23:02;;;;;;;5.32;4.18;;;15.80;99.90;;;;;;5096364;28;20036;-68
2021/08/03 07:25:28;;;;;;;7.75;5.10;;;15.80;99.90;;;;;;5096489;28;20027;-69
2021/08/03 07:27:54;;;;;;;7.05;4.63;;;15.80;99.90;;;;;;5096090;28;20127;-68
2021/08/03 07:30:19;;;;;;;4.85;4.45;;;15.90;99.90;;;;;;5096426;28;20056;-68
2021/08/03 07:32:45;;;;;;;4.90;4.50;;;15.70;99.90;;;;;;5105844;28;20395;-68
2021/08/03 07:35:11;;;;;;;4.93;4.32;;;15.80;99.90;;;;;;5099986;28;20028;-68
2021/08/03 07:37:37;;;;;;;4.15;3.85;;;15.90;99.90;;;;;;5081660;28;20027;-68
2021/08/03 07:40:05;;;;;;;6.43;4.88;;;15.70;99.90;;;;;;5100001;28;20024;-68
2021/08/03 07:42:31;;;;;;;4.65;4.18;;;15.90;99.90;;;;;;5099819;28;20023;-68
2021/08/03 07:44:56;;;;;;;4.97;4.20;;;15.80;99.90;;;;;;5100200;28;20055;-68
2021/08/03 07:47:22;;;;;;;5.35;4.32;;;15.80;99.90;;;;;;5099734;28;20484;-69
2021/08/03 07:49:51;;;;;;;4.28;3.88;;;15.80;99.90;;;;;;5099788;28;20036;-69
2021/08/03 07:52:18;;;;;;;4.55;4.15;;;15.80;99.90;;;;;;5099442;28;20036;-68
2021/08/03 07:54:44;;;;;;;6.20;4.07;;;15.70;99.90;;;;;;5081396;28;20119;-68
2021/08/03 07:57:09;;;;;;;4.80;4.38;;;15.90;99.90;;;;;;5081339;28;20040;-68
2021/08/03 07:59:35;;;;;;;3.78;3.47;;;15.90;99.90;;;;;;5081297;28;20024;-68
2021/08/03 08:02:01;;;;;;;5.05;4.32;;;15.90;99.90;;;;;;5099365;28;20511;-68
2021/08/03 08:04:27;;;;;;;4.90;3.78;;;16.30;99.90;;;;;;5099770;28;20024;-68
2021/08/03 08:06:53;;;;;;;7.55;4.45;;;16.30;99.90;;;;;;5099230;28;20027;-68
2021/08/03 08:09:19;;;;;;;5.93;4.38;;;16.20;99.90;;;;;;5081155;28;20036;-69
2021/08/03 08:11:45;;;;;;;3.92;3.60;;;16.20;99.90;;;;;;5081205;28;20560;-68
2021/08/03 08:14:12;;;;;;;5.45;4.68;;;16.30;99.90;;;;;;5099292;28;20111;-68
2021/08/03 08:16:38;;;;;;;5.32;3.50;;;16.40;99.90;;;;;;5099217;28;20020;-68
2021/08/03 08:19:04;;;;;;;6.00;4.60;;;16.60;99.90;;;;;;5099219;28;20391;-68
2021/08/03 08:21:33;;;;;;;5.00;4.43;;;16.80;99.90;;;;;;5098867;28;20016;-68
2021/08/03 08:24:03;;;;;;;4.35;3.90;;;16.80;99.90;;;;;;5099037;28;20031;-68
2021/08/03 08:26:30;;;;;;;7.60;4.47;;;16.80;99.90;;;;;;5098720;28;20023;-68
2021/08/03 08:28:57;;;;;;;3.50;3.22;;;16.80;99.90;;;;;;5099257;28;20062;-68
2021/08/03 08:31:23;;;;;;;4.30;3.75;;;16.60;99.90;;;;;;5099289;28;20031;-68
2021/08/03 08:33:49;;;;;;;4.38;3.97;;;16.40;99.90;;;;;;5107491;28;20103;-68
2021/08/03 08:36:14;;;;;;;5.28;4.75;;;16.50;99.90;;;;;;5098590;28;20024;-69
2021/08/03 08:38:40;;;;;;;4.25;3.50;;;16.40;99.90;;;;;;5080394;28;20036;-68
2021/08/03 08:41:10;;;;;;;7.13;5.03;;;16.40;99.90;;;;;;5098563;28;20037;-69
2021/08/03 08:43:36;;;;;;;4.80;3.92;;;16.10;99.90;;;;;;5098466;28;20016;-68
2021/08/03 08:46:02;;;;;;;8.60;4.40;;;16.20;99.90;;;;;;5098210;28;20036;-68
2021/08/03 08:48:29;;;;;;;4.53;3.65;;;16.30;99.90;;;;;;5098631;28;20020;-69
2021/08/03 08:50:55;;;;;;;4.70;4.28;;;16.40;99.90;;;;;;5080215;28;20020;-69
2021/08/03 08:53:25;;;;;;;4.20;3.45;;;16.40;99.90;;;;;;5098487;28;20035;-68
2021/08/03 08:55:51;;;;;;;3.00;2.70;;;16.40;99.90;;;;;;5098460;28;20023;-68
2021/08/03 08:58:17;;;;;;;3.20;2.90;;;16.80;99.90;;;;;;5098531;28;20028;-68
2021/08/03 09:00:43;;;;;;;3.00;2.80;;;16.70;99.90;;;;;;5098486;28;20091;-68
2021/08/03 09:03:09;;;;;;;3.28;2.72;;;17.00;99.90;;;;;;5098331;28;20051;-68
2021/08/03 09:05:40;;;;;;;3.13;2.45;;;17.00;99.90;;;;;;5079850;28;20392;-68
2021/08/03 09:08:08;;;;;;;4.00;3.00;;;17.00;99.90;;;;;;5098211;28;20028;-68
2021/08/03 09:10:45;;;;;;;5.05;2.92;;;17.10;99.90;;;;;;5079956;28;20023;-68
2021/08/03 09:13:29;;;;;;;6.03;2.72;;;17.00;99.90;;;;;;5098056;28;20032;-68
2021/08/03 09:16:00;;;;;;;2.33;2.13;;;17.10;99.90;;;;;;5098365;28;20027;-68
2021/08/03 09:18:31;;;;;;;3.88;2.20;;;16.90;99.90;;;;;;5098039;28;20480;-68
2021/08/03 09:20:58;;;;;;;2.88;2.67;;;17.00;99.90;;;;;;5098120;28;20020;-68
2021/08/03 09:23:54;;;;;;;3.17;2.15;;;16.80;99.90;;;;;;5097859;28;20368;-68
2021/08/03 09:26:39;;;;;;;3.47;2.47;;;17.00;99.90;;;;;;5097828;28;20050;-69
2021/08/03 09:29:07;;;;;;;3.20;2.50;;;17.10;99.90;;;;;;5098047;28;20043;-68
2021/08/03 09:31:35;;;;;;;3.13;2.60;;;17.20;99.90;;;;;;5099649;28;20043;-68
2021/08/03 09:34:10;;;;;;;2.78;2.55;;;17.40;99.90;;;;;;5103850;28;20020;-68
2021/08/03 09:36:45;;;;;;;4.75;2.70;;;17.40;99.90;;;;;;5097739;28;20384;-69
2021/08/03 09:39:37;;;;;;;2.53;2.33;;;17.20;99.90;;;;;;5097433;28;20097;-68
2021/08/03 09:42:12;;;;;;;3.55;2.50;;;17.10;99.90;;;;;;5097677;28;20377;-68
2021/08/03 09:44:51;;;;;;;4.85;2.80;;;17.00;99.90;;;;;;5097802;28;20024;-68
2021/08/03 09:47:18;;;;;;;2.53;2.30;;;16.70;99.90;;;;;;5097473;28;20392;-68
2021/08/03 09:49:48;;;;;;;2.50;2.30;;;17.00;99.90;;;;;;5097608;28;20484;-68
2021/08/03 09:52:29;;;;;;;3.08;2.75;;;17.00;99.90;;;;;;5097438;28;20101;-68
2021/08/03 09:55:10;;;;;;;3.50;2.70;;;17.00;99.90;;;;;;5097523;28;20035;-68
2021/08/03 09:57:36;;;;;;;3.97;2.50;;;17.20;99.90;;;;;;5096800;28;20024;-68
2021/08/03 10:00:22;;;;;;;2.70;2.33;;;17.50;99.90;;;;;;5097251;28;20028;-68
2021/08/03 10:02:49;;;;;;;2.47;2.25;;;17.30;99.90;;;;;;5097409;28;20020;-68
2021/08/03 10:05:15;;;;;;;4.13;2.92;;;17.70;99.90;;;;;;5096895;28;20102;-69
2021/08/03 10:07:41;;;;;;;2.45;2.35;;;17.60;99.90;;;;;;5097232;28;20024;-68
2021/08/03 10:10:08;;;;;;;3.90;2.72;;;17.60;99.90;;;;;;5096989;28;20403;-68
2021/08/03 10:12:35;;;;;;;3.53;3.17;;;17.60;99.90;;;;;;5078903;28;20024;-68
2021/08/03 10:15:02;;;;;;;3.17;2.30;;;17.50;99.90;;;;;;5096984;28;20073;-68
2021/08/03 10:17:28;;;;;;;2.97;2.50;;;17.80;99.90;;;;;;5097103;28;20468;-69
2021/08/03 10:19:59;;;;;;;2.70;2.50;;;18.30;99.90;;;;;;5096991;28;20089;-68
2021/08/03 10:22:29;;;;;;;2.00;1.90;;;18.50;99.90;;;;;;5097265;28;20388;-69
2021/08/03 10:25:06;;;;;;;2.45;2.20;;;18.60;99.90;;;;;;5079244;28;20024;-68
2021/08/03 10:27:52;;;;;;;2.50;2.28;;;18.60;99.90;;;;;;5096738;28;20119;-68
2021/08/03 10:30:30;;;;;;;3.00;2.77;;;18.60;99.90;;;;;;5097109;28;20057;-69
2021/08/03 10:33:09;;;;;;;2.92;2.60;;;18.20;99.90;;;;;;5077998;28;20028;-68
2021/08/03 10:35:49;;;;;;;2.17;1.98;;;18.20;99.90;;;;;;5096830;28;20467;-69
2021/08/03 10:38:27;;;;;;;2.67;2.22;;;18.00;99.90;;;;;;5062037;28;20028;-69
2021/08/03 10:40:53;;;;;;;5.40;2.28;;;17.80;99.90;;;;;;5078683;28;20027;-68
2021/08/03 10:43:23;;;;;;;3.20;2.95;;;17.90;99.90;;;;;;5096701;28;20468;-68
2021/08/03 10:46:04;;;;;;;3.03;2.42;;;18.20;99.90;;;;;;5096683;28;20028;-68
2021/08/03 10:48:39;;;;;;;4.80;2.97;;;18.30;99.90;;;;;;5096737;28;20822;-68
2021/08/03 10:51:30;;;;;;;2.90;2.60;;;18.70;99.90;;;;;;5096451;28;20020;-68
2021/08/03 10:54:09;;;;;;;2.53;2.30;;;18.80;99.90;;;;;;5066923;28;20029;-69
2021/08/03 10:56:56;;;;;;;2.38;2.17;;;18.90;99.90;;;;;;5096784;28;20035;-69
2021/08/03 10:59:30;;;;;;;5.13;3.13;;;19.30;99.90;;;;;;5096679;28;20027;-68
2021/08/03 11:01:57;;;;;;;3.22;2.40;;;19.80;99.90;;;;;;5096510;28;20028;-69
2021/08/03 11:04:41;;;;;;;2.50;2.30;;;19.80;99.90;;;;;;5096872;28;20027;-69
2021/08/03 11:07:26;;;;;;;2.08;1.88;;;19.90;99.90;;;;;;5078651;28;20092;-69
2021/08/03 11:09:57;;;;;;;3.35;2.17;;;20.00;99.90;;;;;;5082205;28;20043;-69
2021/08/03 11:12:46;;;;;;;2.40;2.20;;;19.90;99.90;;;;;;5082489;28;20035;-68
2021/08/03 11:15:21;;;;;;;3.00;2.63;;;19.90;99.90;;;;;;5100360;28;20028;-69
2021/08/03 11:18:01;;;;;;;1.98;1.83;;;20.20;99.90;;;;;;5100441;28;20024;-69
2021/08/03 11:20:36;;;;;;;3.10;1.95;;;20.40;99.90;;;;;;5100438;28;20024;-69
2021/08/03 11:23:02;;;;;;;3.37;2.07;;;;;;;;;;5100185;28;20048;-69
2021/08/03 11:25:29;;;;;;;2.15;1.95;;;;;;;;;;5100368;28;20341;-69
2021/08/03 11:27:55;;;;;;;2.38;2.13;;;;;;;;;;5100128;28;20106;-68
2021/08/03 11:30:22;;;;;;;3.40;1.92;;;;;;;;;;5100409;28;20113;-69
2021/08/03 11:32:48;;;;;;;2.65;2.45;;;;;;;;;;5108729;28;20028;-69
2021/08/03 11:35:25;;;;;;;3.05;2.75;;;;;;;;;;5115649;28;20089;-69
2021/08/03 11:37:51;;;;;;;2.40;2.08;;;;;;;;;;5099940;28;20053;-68
2021/08/03 11:40:17;;;;;;;3.08;2.03;;;;;;;;;;5099874;28;20032;-69
2021/08/03 11:42:45;;;;;;;2.65;2.45;;;20.10;99.90;;;;;;5099935;28;20369;-69
2021/08/03 11:45:15;;;;;;;1.98;1.80;;;19.80;99.90;;;;;;5099953;28;20031;-69
2021/08/03 11:47:45;;;;;;;3.03;2.00;;;19.30;99.90;;;;;;5099762;28;20047;-68
2021/08/03 11:50:17;;;;;;;2.58;1.88;;;19.00;99.90;;;;;;5081367;28;20039;-68
2021/08/03 11:52:44;;;;;;;2.58;2.25;;;18.70;99.90;;;;;;5099932;28;20028;-69
2021/08/03 11:55:15;;;;;;;7.47;2.35;;;18.50;99.90;;;;;;5099545;28;20024;-68
2021/08/03 11:57:41;;;;;;;2.13;2.00;;;18.40;99.90;;;;;;5099751;28;20052;-68
2021/08/03 12:00:21;;;;;;;3.33;2.15;;;18.00;99.90;;;;;;5081265;28;20025;-68
2021/08/03 12:02:51;;;;;;;4.55;2.60;;;18.00;99.90;;;;;;5099685;28;20022;-68
2021/08/03 12:05:30;;;;;;;2.90;2.55;;;17.70;99.90;;;;;;5099194;28;20023;-69
2021/08/03 12:07:56;;;;;;;2.63;2.17;;;17.70;99.90;;;;;;5081422;28;20046;-69
2021/08/03 12:10:25;;;;;;;3.28;2.55;;;17.70;99.90;;;;;;5099305;28;20404;-69
2021/08/03 12:12:51;;;;;;;3.80;2.67;;;17.70;99.90;;;;;;5099258;28;20032;-69
2021/08/03 12:15:20;;;;;;;3.25;2.70;;;17.80;99.90;;;;;;5099193;28;20027;-69
2021/08/03 12:17:47;;;;;;;2.67;2.13;;;18.10;99.90;;;;;;5099388;28;20017;-69
2021/08/03 12:20:41;;;;;;;4.55;2.67;;;18.10;99.90;;;;;;5097826;28;20453;-69
2021/08/03 12:23:11;;;;;;;3.65;2.25;;;18.50;99.90;;;;;;5097228;28;20040;-69
2021/08/03 12:26:11;;;;;;;1.95;1.85;;;18.80;99.90;;;;;;5080985;28;20039;-68
2021/08/03 12:28:43;;;;;;;2.63;2.42;;;19.20;99.90;;;;;;5071829;28;20048;-68
2021/08/03 12:31:42;;;;;;;3.10;2.83;;;19.40;99.90;;;;;;5098897;28;20020;-69
2021/08/03 12:34:11;;;;;;;4.13;3.03;;;19.30;99.90;;;;;;5051616;28;20056;-68
2021/08/03 12:36:54;;;;;;;3.42;2.28;;;19.40;99.90;;;;;;5080677;28;20020;-68
2021/08/03 12:39:28;;;;;;;2.83;2.30;;;19.60;99.90;;;;;;5098655;28;20052;-68
2021/08/03 12:42:10;;;;;;;3.47;2.47;;;19.70;99.90;;;;;;5099098;28;20073;-69
2021/08/03 12:44:40;;;;;;;2.45;2.05;;;19.90;99.90;;;;;;5098927;28;20016;-69
2021/08/03 12:47:21;;;;;;;3.00;2.50;;;20.00;99.90;;;;;;5098790;28;20028;-69
2021/08/03 12:49:48;;;;;;;2.88;2.67;;;20.00;99.90;;;;;;5098526;28;20028;-69
2021/08/03 12:52:16;;;;;;;2.08;1.88;;;20.10;99.90;;;;;;5098459;28;20032;-69
2021/08/03 12:54:55;;;;;;;2.95;2.47;;;20.30;99.90;;;;;;5098602;28;20028;-69
2021/08/03 12:57:23;;;;;;;2.17;1.92;;;20.20;99.90;;;;;;5098536;28;20039;-68
2021/08/03 12:59:50;;;;;;;2.53;2.15;;;20.10;99.90;;;;;;5098436;28;20019;-68
2021/08/03 13:02:18;;;;;;;2.85;2.33;;;19.90;99.90;;;;;;5080183;28;20077;-69
2021/08/03 13:04:45;;;;;;;2.97;2.17;;;19.60;99.90;;;;;;5080014;28;20495;-68
2021/08/03 13:07:11;;;;;;;3.42;2.65;;;19.40;99.90;;;;;;5080172;28;20084;-68